<?xml version="1.0" encoding="UTF-8" standalone="no" ?>
<gpx version="1.1" creator="Visorando" xmlns:xsi="http://www.w3.org/2001/XMLSchema-instance" xmlns="http://www.topografix.com/GPX/1/1" xsi:schemaLocation="http://www.topografix.com/GPX/1/1 http://www.topografix.com/GPX/1/1/gpx.xsd">
 <metadata>
  <name>Sur le chemin des flotteurs de bois</name>
  <link href="https://www.visorando.com/randonnee-sur-le-chemin-des-flotteurs-de-bois/">
   <text>https://www.visorando.com/randonnee-sur-le-chemin-des-flotteurs-de-bois/</text>
  </link>
 </metadata>
 <wpt lat="47.45979" lon="3.524017">
  <ele>148</ele>
  <time>2020-05-22T17:21:03+02:00</time>
  <name>Parking Face au temple de Bethléem</name>
 </wpt>
 <wpt lat="47.464236" lon="3.536333">
  <ele>218</ele>
  <time>2020-05-22T17:23:13+02:00</time>
  <name>Voie routière. Prendre le chemin en face</name>
 </wpt>
 <wpt lat="47.463873" lon="3.543409">
  <ele>204</ele>
  <time>2020-05-22T17:23:53+02:00</time>
  <name>Quitter le GR65 et prendre à droite</name>
 </wpt>
 <wpt lat="47.458992" lon="3.541328">
  <ele>159</ele>
  <time>2020-05-22T17:25:48+02:00</time>
  <name>Quitter le trottoir haut, virer à gauche</name>
 </wpt>
 <wpt lat="47.451563" lon="3.527959">
  <ele>155</ele>
  <time>2020-05-22T17:28:03+02:00</time>
  <name>Longer la piste cyclable</name>
 </wpt>
 <wpt lat="47.457703" lon="3.522804">
  <ele>146</ele>
  <time>2020-05-22T17:28:53+02:00</time>
  <name>Ecluse tournante</name>
 </wpt>
 <wpt lat="47.459782" lon="3.524017">
  <ele>148</ele>
  <time>2020-05-22T17:33:08+02:00</time>
  <name>Parking Face au temple de Bethléem</name>
 </wpt>
 <trk>
  <name>Sur le chemin des flotteurs de bois</name>
  <trkseg>
   <trkpt lat="47.45979" lon="3.524017">
    <ele>148</ele>
    <time>2020-05-22T17:21:03+02:00</time>
   </trkpt>
   <trkpt lat="47.459967" lon="3.523866">
    <ele>147</ele>
    <time>2020-05-22T17:21:08+02:00</time>
   </trkpt>
   <trkpt lat="47.460497" lon="3.524231">
    <ele>148</ele>
    <time>2020-05-22T17:21:13+02:00</time>
   </trkpt>
   <trkpt lat="47.461128" lon="3.524945">
    <ele>153</ele>
    <time>2020-05-22T17:21:18+02:00</time>
   </trkpt>
   <trkpt lat="47.461182" lon="3.525267">
    <ele>156</ele>
    <time>2020-05-22T17:21:23+02:00</time>
   </trkpt>
   <trkpt lat="47.461331" lon="3.525642">
    <ele>158</ele>
    <time>2020-05-22T17:21:28+02:00</time>
   </trkpt>
   <trkpt lat="47.461552" lon="3.526055">
    <ele>161</ele>
    <time>2020-05-22T17:21:33+02:00</time>
   </trkpt>
   <trkpt lat="47.461686" lon="3.526468">
    <ele>167</ele>
    <time>2020-05-22T17:21:38+02:00</time>
   </trkpt>
   <trkpt lat="47.46181" lon="3.526833">
    <ele>172</ele>
    <time>2020-05-22T17:21:43+02:00</time>
   </trkpt>
   <trkpt lat="47.461987" lon="3.527064">
    <ele>177</ele>
    <time>2020-05-22T17:21:48+02:00</time>
   </trkpt>
   <trkpt lat="47.46251" lon="3.527171">
    <ele>178</ele>
    <time>2020-05-22T17:21:53+02:00</time>
   </trkpt>
   <trkpt lat="47.462858" lon="3.527493">
    <ele>185</ele>
    <time>2020-05-22T17:21:58+02:00</time>
   </trkpt>
   <trkpt lat="47.463155" lon="3.527884">
    <ele>189</ele>
    <time>2020-05-22T17:22:03+02:00</time>
   </trkpt>
   <trkpt lat="47.463532" lon="3.52863">
    <ele>196</ele>
    <time>2020-05-22T17:22:08+02:00</time>
   </trkpt>
   <trkpt lat="47.463612" lon="3.529043">
    <ele>199</ele>
    <time>2020-05-22T17:22:13+02:00</time>
   </trkpt>
   <trkpt lat="47.463641" lon="3.529268">
    <ele>200</ele>
    <time>2020-05-22T17:22:18+02:00</time>
   </trkpt>
   <trkpt lat="47.463626" lon="3.529681">
    <ele>200</ele>
    <time>2020-05-22T17:22:23+02:00</time>
   </trkpt>
   <trkpt lat="47.463605" lon="3.530127">
    <ele>202</ele>
    <time>2020-05-22T17:22:28+02:00</time>
   </trkpt>
   <trkpt lat="47.463554" lon="3.53061">
    <ele>204</ele>
    <time>2020-05-22T17:22:33+02:00</time>
   </trkpt>
   <trkpt lat="47.463677" lon="3.531983">
    <ele>208</ele>
    <time>2020-05-22T17:22:38+02:00</time>
   </trkpt>
   <trkpt lat="47.463699" lon="3.53239">
    <ele>208</ele>
    <time>2020-05-22T17:22:43+02:00</time>
   </trkpt>
   <trkpt lat="47.463619" lon="3.533538">
    <ele>210</ele>
    <time>2020-05-22T17:22:48+02:00</time>
   </trkpt>
   <trkpt lat="47.463772" lon="3.533839">
    <ele>210</ele>
    <time>2020-05-22T17:22:53+02:00</time>
   </trkpt>
   <trkpt lat="47.464221" lon="3.534702">
    <ele>214</ele>
    <time>2020-05-22T17:22:58+02:00</time>
   </trkpt>
   <trkpt lat="47.464287" lon="3.535003">
    <ele>216</ele>
    <time>2020-05-22T17:23:03+02:00</time>
   </trkpt>
   <trkpt lat="47.464316" lon="3.535287">
    <ele>217</ele>
    <time>2020-05-22T17:23:08+02:00</time>
   </trkpt>
   <trkpt lat="47.464236" lon="3.536333">
    <ele>218</ele>
    <time>2020-05-22T17:23:13+02:00</time>
   </trkpt>
   <trkpt lat="47.463931" lon="3.537621">
    <ele>215</ele>
    <time>2020-05-22T17:23:18+02:00</time>
   </trkpt>
   <trkpt lat="47.463862" lon="3.539482">
    <ele>213</ele>
    <time>2020-05-22T17:23:23+02:00</time>
   </trkpt>
   <trkpt lat="47.463786" lon="3.539783">
    <ele>212</ele>
    <time>2020-05-22T17:23:28+02:00</time>
   </trkpt>
   <trkpt lat="47.463688" lon="3.540432">
    <ele>208</ele>
    <time>2020-05-22T17:23:33+02:00</time>
   </trkpt>
   <trkpt lat="47.46392" lon="3.54166">
    <ele>204</ele>
    <time>2020-05-22T17:23:38+02:00</time>
   </trkpt>
   <trkpt lat="47.464076" lon="3.542835">
    <ele>206</ele>
    <time>2020-05-22T17:23:43+02:00</time>
   </trkpt>
   <trkpt lat="47.464047" lon="3.543034">
    <ele>206</ele>
    <time>2020-05-22T17:23:48+02:00</time>
   </trkpt>
   <trkpt lat="47.463873" lon="3.543409">
    <ele>204</ele>
    <time>2020-05-22T17:23:53+02:00</time>
   </trkpt>
   <trkpt lat="47.463525" lon="3.542202">
    <ele>200</ele>
    <time>2020-05-22T17:23:58+02:00</time>
   </trkpt>
   <trkpt lat="47.463405" lon="3.541816">
    <ele>199</ele>
    <time>2020-05-22T17:24:03+02:00</time>
   </trkpt>
   <trkpt lat="47.463286" lon="3.541703">
    <ele>198</ele>
    <time>2020-05-22T17:24:08+02:00</time>
   </trkpt>
   <trkpt lat="47.4626" lon="3.541558">
    <ele>191</ele>
    <time>2020-05-22T17:24:13+02:00</time>
   </trkpt>
   <trkpt lat="47.461929" lon="3.541285">
    <ele>189</ele>
    <time>2020-05-22T17:24:18+02:00</time>
   </trkpt>
   <trkpt lat="47.461802" lon="3.541376">
    <ele>188</ele>
    <time>2020-05-22T17:24:23+02:00</time>
   </trkpt>
   <trkpt lat="47.46169" lon="3.541387">
    <ele>188</ele>
    <time>2020-05-22T17:24:28+02:00</time>
   </trkpt>
   <trkpt lat="47.461266" lon="3.540845">
    <ele>186</ele>
    <time>2020-05-22T17:24:33+02:00</time>
   </trkpt>
   <trkpt lat="47.46103" lon="3.540442">
    <ele>185</ele>
    <time>2020-05-22T17:24:38+02:00</time>
   </trkpt>
   <trkpt lat="47.460877" lon="3.540067">
    <ele>184</ele>
    <time>2020-05-22T17:24:43+02:00</time>
   </trkpt>
   <trkpt lat="47.460631" lon="3.539257">
    <ele>185</ele>
    <time>2020-05-22T17:24:48+02:00</time>
   </trkpt>
   <trkpt lat="47.460221" lon="3.538324">
    <ele>183</ele>
    <time>2020-05-22T17:24:53+02:00</time>
   </trkpt>
   <trkpt lat="47.460145" lon="3.538221">
    <ele>183</ele>
    <time>2020-05-22T17:24:58+02:00</time>
   </trkpt>
   <trkpt lat="47.459996" lon="3.538066">
    <ele>184</ele>
    <time>2020-05-22T17:25:03+02:00</time>
   </trkpt>
   <trkpt lat="47.45963" lon="3.53791">
    <ele>183</ele>
    <time>2020-05-22T17:25:08+02:00</time>
   </trkpt>
   <trkpt lat="47.458977" lon="3.537814">
    <ele>177</ele>
    <time>2020-05-22T17:25:13+02:00</time>
   </trkpt>
   <trkpt lat="47.458462" lon="3.537948">
    <ele>169</ele>
    <time>2020-05-22T17:25:18+02:00</time>
   </trkpt>
   <trkpt lat="47.458055" lon="3.538092">
    <ele>163</ele>
    <time>2020-05-22T17:25:23+02:00</time>
   </trkpt>
   <trkpt lat="47.457889" lon="3.538259">
    <ele>158</ele>
    <time>2020-05-22T17:25:28+02:00</time>
   </trkpt>
   <trkpt lat="47.457664" lon="3.538624">
    <ele>152</ele>
    <time>2020-05-22T17:25:33+02:00</time>
   </trkpt>
   <trkpt lat="47.4586" lon="3.540298">
    <ele>160</ele>
    <time>2020-05-22T17:25:38+02:00</time>
   </trkpt>
   <trkpt lat="47.458839" lon="3.540898">
    <ele>161</ele>
    <time>2020-05-22T17:25:43+02:00</time>
   </trkpt>
   <trkpt lat="47.458992" lon="3.541328">
    <ele>159</ele>
    <time>2020-05-22T17:25:48+02:00</time>
   </trkpt>
   <trkpt lat="47.458636" lon="3.541634">
    <ele>152</ele>
    <time>2020-05-22T17:25:53+02:00</time>
   </trkpt>
   <trkpt lat="47.458244" lon="3.541515">
    <ele>149</ele>
    <time>2020-05-22T17:25:58+02:00</time>
   </trkpt>
   <trkpt lat="47.457939" lon="3.541268">
    <ele>149</ele>
    <time>2020-05-22T17:26:03+02:00</time>
   </trkpt>
   <trkpt lat="47.457547" lon="3.54159">
    <ele>148</ele>
    <time>2020-05-22T17:26:08+02:00</time>
   </trkpt>
   <trkpt lat="47.457367" lon="3.541054">
    <ele>147</ele>
    <time>2020-05-22T17:26:13+02:00</time>
   </trkpt>
   <trkpt lat="47.457225" lon="3.540759">
    <ele>147</ele>
    <time>2020-05-22T17:26:18+02:00</time>
   </trkpt>
   <trkpt lat="47.456866" lon="3.540255">
    <ele>147</ele>
    <time>2020-05-22T17:26:23+02:00</time>
   </trkpt>
   <trkpt lat="47.456558" lon="3.539997">
    <ele>146</ele>
    <time>2020-05-22T17:26:28+02:00</time>
   </trkpt>
   <trkpt lat="47.455843" lon="3.539643">
    <ele>147</ele>
    <time>2020-05-22T17:26:33+02:00</time>
   </trkpt>
   <trkpt lat="47.45494" lon="3.539257">
    <ele>148</ele>
    <time>2020-05-22T17:26:38+02:00</time>
   </trkpt>
   <trkpt lat="47.454302" lon="3.538946">
    <ele>147</ele>
    <time>2020-05-22T17:26:43+02:00</time>
   </trkpt>
   <trkpt lat="47.453551" lon="3.538645">
    <ele>147</ele>
    <time>2020-05-22T17:26:48+02:00</time>
   </trkpt>
   <trkpt lat="47.453029" lon="3.538388">
    <ele>147</ele>
    <time>2020-05-22T17:26:53+02:00</time>
   </trkpt>
   <trkpt lat="47.452956" lon="3.538688">
    <ele>151</ele>
    <time>2020-05-22T17:26:58+02:00</time>
   </trkpt>
   <trkpt lat="47.452289" lon="3.538377">
    <ele>153</ele>
    <time>2020-05-22T17:27:03+02:00</time>
   </trkpt>
   <trkpt lat="47.451309" lon="3.537927">
    <ele>160</ele>
    <time>2020-05-22T17:27:08+02:00</time>
   </trkpt>
   <trkpt lat="47.450932" lon="3.537626">
    <ele>161</ele>
    <time>2020-05-22T17:27:13+02:00</time>
   </trkpt>
   <trkpt lat="47.450431" lon="3.536972">
    <ele>164</ele>
    <time>2020-05-22T17:27:18+02:00</time>
   </trkpt>
   <trkpt lat="47.450039" lon="3.536156">
    <ele>166</ele>
    <time>2020-05-22T17:27:23+02:00</time>
   </trkpt>
   <trkpt lat="47.449865" lon="3.535523">
    <ele>166</ele>
    <time>2020-05-22T17:27:28+02:00</time>
   </trkpt>
   <trkpt lat="47.449633" lon="3.534547">
    <ele>173</ele>
    <time>2020-05-22T17:27:33+02:00</time>
   </trkpt>
   <trkpt lat="47.449568" lon="3.533914">
    <ele>175</ele>
    <time>2020-05-22T17:27:38+02:00</time>
   </trkpt>
   <trkpt lat="47.449669" lon="3.532627">
    <ele>175</ele>
    <time>2020-05-22T17:27:43+02:00</time>
   </trkpt>
   <trkpt lat="47.449829" lon="3.531693">
    <ele>172</ele>
    <time>2020-05-22T17:27:48+02:00</time>
   </trkpt>
   <trkpt lat="47.450025" lon="3.530996">
    <ele>171</ele>
    <time>2020-05-22T17:27:53+02:00</time>
   </trkpt>
   <trkpt lat="47.450627" lon="3.529687">
    <ele>164</ele>
    <time>2020-05-22T17:27:58+02:00</time>
   </trkpt>
   <trkpt lat="47.451563" lon="3.527959">
    <ele>155</ele>
    <time>2020-05-22T17:28:03+02:00</time>
   </trkpt>
   <trkpt lat="47.451766" lon="3.527659">
    <ele>156</ele>
    <time>2020-05-22T17:28:08+02:00</time>
   </trkpt>
   <trkpt lat="47.451899" lon="3.527782">
    <ele>154</ele>
    <time>2020-05-22T17:28:13+02:00</time>
   </trkpt>
   <trkpt lat="47.452088" lon="3.527804">
    <ele>153</ele>
    <time>2020-05-22T17:28:18+02:00</time>
   </trkpt>
   <trkpt lat="47.452305" lon="3.527482">
    <ele>154</ele>
    <time>2020-05-22T17:28:23+02:00</time>
   </trkpt>
   <trkpt lat="47.452929" lon="3.526817">
    <ele>156</ele>
    <time>2020-05-22T17:28:28+02:00</time>
   </trkpt>
   <trkpt lat="47.454741" lon="3.524912">
    <ele>154</ele>
    <time>2020-05-22T17:28:33+02:00</time>
   </trkpt>
   <trkpt lat="47.456576" lon="3.523217">
    <ele>147</ele>
    <time>2020-05-22T17:28:38+02:00</time>
   </trkpt>
   <trkpt lat="47.457077" lon="3.522895">
    <ele>148</ele>
    <time>2020-05-22T17:28:43+02:00</time>
   </trkpt>
   <trkpt lat="47.457396" lon="3.522874">
    <ele>147</ele>
    <time>2020-05-22T17:28:48+02:00</time>
   </trkpt>
   <trkpt lat="47.457703" lon="3.522804">
    <ele>146</ele>
    <time>2020-05-22T17:28:53+02:00</time>
   </trkpt>
   <trkpt lat="47.457761" lon="3.522504">
    <ele>146</ele>
    <time>2020-05-22T17:28:58+02:00</time>
   </trkpt>
   <trkpt lat="47.45837" lon="3.521646">
    <ele>148</ele>
    <time>2020-05-22T17:29:03+02:00</time>
   </trkpt>
   <trkpt lat="47.45898" lon="3.521281">
    <ele>149</ele>
    <time>2020-05-22T17:29:08+02:00</time>
   </trkpt>
   <trkpt lat="47.459328" lon="3.521109">
    <ele>149</ele>
    <time>2020-05-22T17:29:13+02:00</time>
   </trkpt>
   <trkpt lat="47.459212" lon="3.520916">
    <ele>150</ele>
    <time>2020-05-22T17:29:18+02:00</time>
   </trkpt>
   <trkpt lat="47.458994" lon="3.520895">
    <ele>151</ele>
    <time>2020-05-22T17:29:23+02:00</time>
   </trkpt>
   <trkpt lat="47.458629" lon="3.521082">
    <ele>152</ele>
    <time>2020-05-22T17:29:28+02:00</time>
   </trkpt>
   <trkpt lat="47.458477" lon="3.521029">
    <ele>153</ele>
    <time>2020-05-22T17:29:33+02:00</time>
   </trkpt>
   <trkpt lat="47.458375" lon="3.520836">
    <ele>156</ele>
    <time>2020-05-22T17:29:38+02:00</time>
   </trkpt>
   <trkpt lat="47.457998" lon="3.519741">
    <ele>164</ele>
    <time>2020-05-22T17:29:43+02:00</time>
   </trkpt>
   <trkpt lat="47.458208" lon="3.519763">
    <ele>163</ele>
    <time>2020-05-22T17:29:48+02:00</time>
   </trkpt>
   <trkpt lat="47.458426" lon="3.519655">
    <ele>161</ele>
    <time>2020-05-22T17:29:53+02:00</time>
   </trkpt>
   <trkpt lat="47.458542" lon="3.519591">
    <ele>160</ele>
    <time>2020-05-22T17:29:58+02:00</time>
   </trkpt>
   <trkpt lat="47.45881" lon="3.51957">
    <ele>159</ele>
    <time>2020-05-22T17:30:03+02:00</time>
   </trkpt>
   <trkpt lat="47.459166" lon="3.519441">
    <ele>158</ele>
    <time>2020-05-22T17:30:08+02:00</time>
   </trkpt>
   <trkpt lat="47.45979" lon="3.519272">
    <ele>158</ele>
    <time>2020-05-22T17:30:13+02:00</time>
   </trkpt>
   <trkpt lat="47.45979" lon="3.51909">
    <ele>157</ele>
    <time>2020-05-22T17:30:18+02:00</time>
   </trkpt>
   <trkpt lat="47.45992" lon="3.518829">
    <ele>156</ele>
    <time>2020-05-22T17:30:23+02:00</time>
   </trkpt>
   <trkpt lat="47.459877" lon="3.518454">
    <ele>153</ele>
    <time>2020-05-22T17:30:28+02:00</time>
   </trkpt>
   <trkpt lat="47.459913" lon="3.518143">
    <ele>152</ele>
    <time>2020-05-22T17:30:33+02:00</time>
   </trkpt>
   <trkpt lat="47.459927" lon="3.51796">
    <ele>151</ele>
    <time>2020-05-22T17:30:38+02:00</time>
   </trkpt>
   <trkpt lat="47.459935" lon="3.51751">
    <ele>148</ele>
    <time>2020-05-22T17:30:43+02:00</time>
   </trkpt>
   <trkpt lat="47.460022" lon="3.517123">
    <ele>148</ele>
    <time>2020-05-22T17:30:48+02:00</time>
   </trkpt>
   <trkpt lat="47.460261" lon="3.517231">
    <ele>148</ele>
    <time>2020-05-22T17:30:53+02:00</time>
   </trkpt>
   <trkpt lat="47.460631" lon="3.517263">
    <ele>146</ele>
    <time>2020-05-22T17:30:58+02:00</time>
   </trkpt>
   <trkpt lat="47.46066" lon="3.517649">
    <ele>146</ele>
    <time>2020-05-22T17:31:03+02:00</time>
   </trkpt>
   <trkpt lat="47.461051" lon="3.51817">
    <ele>147</ele>
    <time>2020-05-22T17:31:08+02:00</time>
   </trkpt>
   <trkpt lat="47.46132" lon="3.51869">
    <ele>147</ele>
    <time>2020-05-22T17:31:13+02:00</time>
   </trkpt>
   <trkpt lat="47.461429" lon="3.519087">
    <ele>147</ele>
    <time>2020-05-22T17:31:18+02:00</time>
   </trkpt>
   <trkpt lat="47.461443" lon="3.519291">
    <ele>147</ele>
    <time>2020-05-22T17:31:23+02:00</time>
   </trkpt>
   <trkpt lat="47.461472" lon="3.520036">
    <ele>147</ele>
    <time>2020-05-22T17:31:28+02:00</time>
   </trkpt>
   <trkpt lat="47.461696" lon="3.520755">
    <ele>146</ele>
    <time>2020-05-22T17:31:33+02:00</time>
   </trkpt>
   <trkpt lat="47.461284" lon="3.520803">
    <ele>147</ele>
    <time>2020-05-22T17:31:38+02:00</time>
   </trkpt>
   <trkpt lat="47.461262" lon="3.520374">
    <ele>148</ele>
    <time>2020-05-22T17:31:43+02:00</time>
   </trkpt>
   <trkpt lat="47.460849" lon="3.520374">
    <ele>151</ele>
    <time>2020-05-22T17:31:48+02:00</time>
   </trkpt>
   <trkpt lat="47.460587" lon="3.520288">
    <ele>152</ele>
    <time>2020-05-22T17:31:53+02:00</time>
   </trkpt>
   <trkpt lat="47.460435" lon="3.52017">
    <ele>153</ele>
    <time>2020-05-22T17:31:58+02:00</time>
   </trkpt>
   <trkpt lat="47.460022" lon="3.520267">
    <ele>154</ele>
    <time>2020-05-22T17:32:03+02:00</time>
   </trkpt>
   <trkpt lat="47.459608" lon="3.520192">
    <ele>156</ele>
    <time>2020-05-22T17:32:08+02:00</time>
   </trkpt>
   <trkpt lat="47.459673" lon="3.520825">
    <ele>149</ele>
    <time>2020-05-22T17:32:13+02:00</time>
   </trkpt>
   <trkpt lat="47.459934" lon="3.520749">
    <ele>150</ele>
    <time>2020-05-22T17:32:18+02:00</time>
   </trkpt>
   <trkpt lat="47.460043" lon="3.520718">
    <ele>150</ele>
    <time>2020-05-22T17:32:23+02:00</time>
   </trkpt>
   <trkpt lat="47.460022" lon="3.521029">
    <ele>149</ele>
    <time>2020-05-22T17:32:28+02:00</time>
   </trkpt>
   <trkpt lat="47.460065" lon="3.521501">
    <ele>148</ele>
    <time>2020-05-22T17:32:33+02:00</time>
   </trkpt>
   <trkpt lat="47.460116" lon="3.522069">
    <ele>147</ele>
    <time>2020-05-22T17:32:38+02:00</time>
   </trkpt>
   <trkpt lat="47.46013" lon="3.522552">
    <ele>147</ele>
    <time>2020-05-22T17:32:43+02:00</time>
   </trkpt>
   <trkpt lat="47.459971" lon="3.522772">
    <ele>147</ele>
    <time>2020-05-22T17:32:48+02:00</time>
   </trkpt>
   <trkpt lat="47.459906" lon="3.523003">
    <ele>146</ele>
    <time>2020-05-22T17:32:53+02:00</time>
   </trkpt>
   <trkpt lat="47.459877" lon="3.523679">
    <ele>147</ele>
    <time>2020-05-22T17:32:58+02:00</time>
   </trkpt>
   <trkpt lat="47.459844" lon="3.523979">
    <ele>148</ele>
    <time>2020-05-22T17:33:03+02:00</time>
   </trkpt>
   <trkpt lat="47.459782" lon="3.524017">
    <ele>148</ele>
    <time>2020-05-22T17:33:08+02:00</time>
   </trkpt>
  </trkseg>
 </trk></gpx>